createdAt,value
2022-11-17T00:02:06.177Z,5.95
2022-11-17T00:04:34.367Z,6.14
2022-11-17T00:07:00.950Z,6.15
2022-11-17T00:09:27.222Z,5.83
2022-11-17T00:12:17.984Z,5.87
2022-11-17T00:14:46.813Z,5.93
2022-11-17T00:17:13.442Z,5.96
2022-11-17T00:20:00.764Z,6.03
2022-11-17T00:22:31.201Z,5.88
2022-11-17T00:24:57.497Z,5.90
2022-11-17T00:27:24.314Z,5.86
2022-11-17T00:29:50.553Z,5.92
2022-11-17T00:32:37.199Z,5.87
2022-11-17T00:35:05.316Z,6.10
2022-11-17T00:37:38.510Z,6.07
2022-11-17T00:40:05.602Z,6.09
2022-11-17T00:42:32.167Z,5.87
2022-11-17T00:44:58.332Z,5.89
2022-11-17T00:47:24.806Z,5.88
2022-11-17T00:49:50.980Z,5.94
2022-11-17T00:52:17.490Z,6.00
2022-11-17T00:54:43.730Z,5.92
2022-11-17T00:57:10.716Z,5.90
2022-11-17T00:59:36.900Z,5.86
2022-11-17T01:02:03.362Z,6.08
2022-11-17T01:04:29.584Z,6.01
2022-11-17T01:06:56.144Z,5.97
2022-11-17T01:09:23.529Z,5.88
2022-11-17T01:11:52.075Z,5.97
2022-11-17T01:14:21.987Z,6.03
2022-11-17T01:16:48.447Z,6.27
2022-11-17T01:19:15.655Z,6.33
2022-11-17T01:21:42.585Z,6.10
2022-11-17T01:24:10.796Z,6.09
2022-11-17T01:26:38.749Z,6.05
2022-11-17T01:29:06.174Z,6.08
2022-11-17T01:31:35.749Z,6.02
2022-11-17T01:34:02.366Z,5.95
2022-11-17T01:36:51.584Z,5.93
2022-11-17T01:39:17.844Z,6.00
2022-11-17T01:41:44.402Z,5.95
2022-11-17T01:44:35.749Z,5.95
2022-11-17T01:47:20.164Z,5.85
2022-11-17T01:49:48.344Z,5.97
2022-11-17T01:52:15.141Z,5.79
2022-11-17T01:54:42.790Z,6.03
2022-11-17T01:57:14.111Z,6.07
2022-11-17T01:59:45.702Z,5.96
2022-11-17T02:02:12.075Z,5.94
2022-11-17T02:04:52.983Z,5.80
2022-11-17T02:07:25.142Z,5.93
2022-11-17T02:09:55.445Z,6.04
2022-11-17T02:12:26.145Z,5.97
2022-11-17T02:14:53.894Z,5.94
2022-11-17T02:17:22.902Z,5.90
2022-11-17T02:20:35.675Z,6.15
2022-11-17T02:23:36.583Z,6.11
2022-11-17T02:26:14.696Z,6.06
2022-11-17T02:29:20.209Z,6.14
2022-11-17T02:32:18.768Z,6.27
2022-11-17T02:34:48.000Z,6.21
2022-11-17T02:37:26.230Z,6.05
2022-11-17T02:40:06.175Z,5.84
2022-11-17T02:43:13.504Z,5.80
2022-11-17T02:45:47.819Z,5.70
2022-11-17T02:48:21.603Z,5.87
2022-11-17T02:50:49.831Z,5.78
2022-11-17T02:53:17.899Z,5.83
2022-11-17T02:55:50.124Z,5.78
2022-11-17T02:58:16.348Z,5.91
2022-11-17T03:01:21.433Z,6.03
2022-11-17T03:04:38.743Z,5.89
2022-11-17T03:07:26.863Z,5.83
2022-11-17T03:10:14.617Z,5.92
2022-11-17T03:13:06.449Z,5.93
2022-11-17T03:15:48.792Z,5.95
2022-11-17T03:18:25.952Z,5.88
2022-11-17T03:21:04.818Z,5.81
2022-11-17T03:23:44.061Z,5.78
2022-11-17T03:26:15.075Z,5.80
2022-11-17T03:28:45.591Z,5.93
2022-11-17T03:31:14.541Z,5.98
2022-11-17T03:33:44.614Z,5.73
2022-11-17T03:36:23.425Z,5.80
2022-11-17T03:38:58.317Z,5.71
2022-11-17T03:41:26.760Z,5.67
2022-11-17T03:43:55.912Z,5.85
2022-11-17T03:46:26.065Z,5.76
2022-11-17T03:49:06.093Z,5.87
2022-11-17T03:51:32.816Z,5.73
2022-11-17T03:54:00.198Z,5.87
2022-11-17T03:56:43.599Z,5.66
2022-11-17T03:59:28.939Z,5.74
2022-11-17T04:01:55.756Z,5.96
2022-11-17T04:04:22.580Z,5.88
2022-11-17T04:06:52.558Z,5.84
2022-11-17T04:09:24.189Z,5.80
2022-11-17T04:12:09.552Z,5.70
2022-11-17T04:14:54.579Z,6.02
2022-11-17T04:17:20.948Z,5.95
2022-11-17T04:19:48.039Z,6.08
2022-11-17T04:22:14.365Z,6.03
2022-11-17T04:24:40.989Z,5.93
2022-11-17T04:27:26.287Z,5.84
2022-11-17T04:29:52.853Z,5.96
2022-11-17T04:32:19.335Z,5.74
2022-11-17T04:34:45.867Z,5.77
2022-11-17T04:37:16.634Z,5.72
2022-11-17T04:39:44.231Z,5.64
2022-11-17T04:42:10.582Z,5.70
2022-11-17T04:44:37.115Z,5.59
2022-11-17T04:47:03.598Z,5.68
2022-11-17T04:49:31.428Z,5.69
2022-11-17T04:51:57.614Z,5.66
2022-11-17T04:54:24.645Z,5.65
2022-11-17T04:56:52.087Z,5.71
2022-11-17T04:59:18.711Z,5.63
2022-11-17T05:01:45.733Z,5.46
2022-11-17T05:04:14.701Z,5.72
2022-11-17T05:06:43.946Z,5.82
2022-11-17T05:09:13.507Z,5.81
2022-11-17T05:11:59.035Z,5.89
2022-11-17T05:14:27.035Z,5.87
2022-11-17T05:17:09.608Z,5.68
2022-11-17T05:19:40.229Z,5.87
2022-11-17T05:22:27.042Z,5.90
2022-11-17T05:24:53.921Z,5.73
2022-11-17T05:27:21.148Z,5.78
2022-11-17T05:29:47.662Z,5.74
2022-11-17T05:32:13.971Z,5.81
2022-11-17T05:34:40.408Z,5.89
2022-11-17T05:37:06.864Z,5.92
2022-11-17T05:39:33.220Z,5.85
2022-11-17T05:41:59.420Z,5.72
2022-11-17T05:44:25.916Z,5.73
2022-11-17T05:46:52.015Z,5.78
2022-11-17T05:49:18.442Z,5.70
2022-11-17T05:51:47.446Z,5.83
2022-11-17T05:54:17.960Z,5.78
2022-11-17T05:56:52.167Z,5.76
2022-11-17T05:59:28.205Z,5.86
2022-11-17T06:02:03.483Z,5.82
2022-11-17T06:04:30.725Z,5.83
2022-11-17T06:06:59.469Z,5.90
2022-11-17T06:09:33.216Z,5.77
2022-11-17T06:12:04.280Z,5.87
2022-11-17T06:14:32.168Z,5.91
2022-11-17T06:17:05.163Z,5.99
2022-11-17T06:19:38.527Z,6.14
2022-11-17T06:22:12.282Z,6.02
2022-11-17T06:24:42.706Z,6.02
2022-11-17T06:27:11.017Z,6.03
2022-11-17T06:29:43.587Z,6.00
2022-11-17T06:32:13.576Z,5.78
2022-11-17T06:34:41.490Z,5.84
2022-11-17T06:37:07.917Z,5.88
2022-11-17T06:39:34.066Z,6.07
2022-11-17T06:42:00.449Z,5.77
2022-11-17T06:44:26.520Z,5.85
2022-11-17T06:46:52.924Z,6.00
2022-11-17T06:49:19.177Z,5.92
2022-11-17T06:51:45.855Z,6.07
2022-11-17T06:54:13.790Z,5.92
2022-11-17T06:56:40.447Z,5.84
2022-11-17T06:59:06.631Z,5.92
2022-11-17T07:01:33.168Z,5.96
2022-11-17T07:03:59.228Z,5.90
2022-11-17T07:06:25.771Z,5.81
2022-11-17T07:08:51.919Z,5.62
2022-11-17T07:11:18.504Z,5.95
2022-11-17T07:13:44.893Z,5.95
2022-11-17T07:16:22.848Z,6.09
2022-11-17T07:18:49.685Z,5.94
2022-11-17T07:21:17.195Z,5.82
2022-11-17T07:23:44.242Z,5.85
2022-11-17T07:26:11.289Z,5.82
2022-11-17T07:28:38.039Z,6.27
2022-11-17T07:31:07.261Z,6.17
2022-11-17T07:33:33.740Z,6.10
2022-11-17T07:36:11.159Z,5.98
2022-11-17T07:38:39.087Z,5.92
2022-11-17T07:41:08.034Z,6.01
2022-11-17T07:43:35.518Z,5.98
2022-11-17T07:46:10.531Z,6.04
2022-11-17T07:48:37.753Z,6.09
2022-11-17T07:51:05.165Z,6.00
2022-11-17T07:53:33.929Z,6.05
2022-11-17T07:56:08.402Z,5.64
2022-11-17T07:58:35.603Z,5.84
2022-11-17T08:01:16.692Z,5.69
2022-11-17T08:03:43.697Z,5.70
2022-11-17T08:06:10.507Z,5.72
2022-11-17T08:08:38.366Z,5.90
2022-11-17T08:11:07.603Z,5.84
2022-11-17T08:13:34.599Z,5.76
2022-11-17T08:16:01.667Z,5.80
2022-11-17T08:18:28.485Z,5.70
2022-11-17T08:21:06.601Z,5.62
2022-11-17T08:23:33.463Z,5.65
2022-11-17T08:26:01.949Z,5.54
2022-11-17T08:28:28.250Z,5.64
2022-11-17T08:30:55.268Z,5.70
2022-11-17T08:33:21.613Z,5.99
2022-11-17T08:35:48.179Z,5.85
2022-11-17T08:38:18.108Z,5.69
2022-11-17T08:40:47.131Z,5.64
2022-11-17T08:43:13.686Z,5.63
2022-11-17T08:45:42.259Z,5.75
2022-11-17T08:48:08.439Z,6.16
2022-11-17T08:50:37.859Z,6.29
2022-11-17T08:53:04.120Z,6.29
2022-11-17T08:55:30.602Z,6.09
2022-11-17T08:57:56.769Z,5.93
2022-11-17T09:00:23.520Z,5.95
2022-11-17T09:02:49.653Z,5.80
2022-11-17T09:05:16.208Z,5.90
2022-11-17T09:07:42.422Z,5.75
2022-11-17T09:10:10.347Z,6.07
2022-11-17T09:12:36.887Z,5.90
2022-11-17T09:15:04.533Z,6.00
2022-11-17T09:17:31.385Z,5.88
2022-11-17T09:19:57.791Z,5.70
2022-11-17T09:22:24.065Z,5.73
2022-11-17T09:24:50.517Z,5.83
2022-11-17T09:27:16.621Z,6.00
2022-11-17T09:29:43.050Z,6.01
2022-11-17T09:32:09.234Z,5.97
2022-11-17T09:34:35.665Z,6.22
2022-11-17T09:37:01.865Z,5.79
2022-11-17T09:39:28.340Z,6.04
2022-11-17T09:41:56.592Z,6.14
2022-11-17T09:44:47.093Z,6.37
2022-11-17T09:47:31.736Z,6.10
2022-11-17T09:50:04.069Z,5.97
2022-11-17T09:52:49.225Z,5.92
2022-11-17T09:55:45.551Z,6.33
2022-11-17T09:58:29.203Z,5.99
2022-11-17T10:00:55.679Z,6.16
2022-11-17T10:03:27.642Z,6.29
2022-11-17T10:05:54.660Z,6.30
2022-11-17T10:08:31.147Z,6.46
2022-11-17T10:10:57.641Z,6.40
2022-11-17T10:13:32.127Z,6.35
2022-11-17T10:16:04.887Z,6.36
2022-11-17T10:18:38.041Z,6.65
2022-11-17T10:21:06.443Z,6.39
2022-11-17T10:23:39.792Z,6.36
2022-11-17T10:26:12.665Z,6.32
2022-11-17T10:28:39.883Z,6.16
2022-11-17T10:31:15.203Z,6.50
2022-11-17T10:33:46.961Z,6.40
2022-11-17T10:36:25.488Z,6.65
2022-11-17T10:38:53.780Z,6.63
2022-11-17T10:41:25.053Z,6.34
2022-11-17T10:44:11.349Z,6.41
2022-11-17T10:47:02.354Z,6.47
2022-11-17T10:49:34.677Z,6.46
2022-11-17T10:52:08.613Z,6.40
2022-11-17T10:54:34.828Z,6.40
2022-11-17T10:57:04.821Z,6.59
2022-11-17T10:59:41.218Z,6.31
2022-11-17T11:02:26.249Z,6.29
2022-11-17T11:05:18.330Z,6.45
2022-11-17T11:08:18.827Z,6.43
2022-11-17T11:11:14.034Z,6.60
2022-11-17T11:14:10.309Z,6.57
2022-11-17T11:16:36.566Z,6.62
2022-11-17T11:19:08.311Z,6.64
2022-11-17T11:22:21.501Z,6.59
2022-11-17T11:24:59.930Z,6.68
2022-11-17T11:27:48.693Z,6.44
2022-11-17T11:30:17.066Z,6.46
2022-11-17T11:32:58.292Z,6.66
2022-11-17T11:35:36.190Z,6.66
2022-11-17T11:38:34.590Z,6.86
2022-11-17T11:41:23.342Z,6.62
2022-11-17T11:44:02.243Z,6.56
2022-11-17T11:46:38.163Z,6.56
2022-11-17T11:49:32.765Z,6.73
2022-11-17T11:52:00.019Z,6.66
2022-11-17T11:54:47.756Z,6.32
2022-11-17T11:57:22.006Z,6.40
2022-11-17T11:59:59.482Z,6.46
2022-11-17T12:02:50.712Z,6.42
2022-11-17T12:05:44.677Z,6.47
2022-11-17T12:08:20.128Z,6.38
2022-11-17T12:10:58.444Z,6.12
2022-11-17T12:13:25.659Z,6.19
2022-11-17T12:16:18.898Z,6.22
2022-11-17T12:18:45.028Z,6.27
2022-11-17T12:21:13.079Z,6.33
2022-11-17T12:23:57.366Z,6.53
2022-11-17T12:26:34.325Z,6.41
2022-11-17T12:29:19.199Z,6.51
2022-11-17T12:31:54.431Z,6.50
2022-11-17T12:34:30.907Z,6.44
2022-11-17T12:37:16.143Z,6.41
2022-11-17T12:40:03.054Z,6.40
2022-11-17T12:42:32.830Z,6.24
2022-11-17T12:45:00.096Z,6.12
2022-11-17T12:47:31.985Z,6.27
2022-11-17T12:50:17.313Z,6.44
2022-11-17T12:53:11.414Z,6.17
2022-11-17T12:55:40.498Z,6.22
2022-11-17T12:58:30.051Z,6.15
2022-11-17T13:01:10.940Z,6.45
2022-11-17T13:03:51.846Z,6.10
2022-11-17T13:06:36.252Z,6.10
2022-11-17T13:09:11.020Z,6.22
2022-11-17T13:11:37.456Z,6.00
2022-11-17T13:14:14.612Z,6.01
2022-11-17T13:16:47.741Z,6.21
2022-11-17T13:19:41.075Z,6.09
2022-11-17T13:22:10.368Z,6.18
2022-11-17T13:24:39.927Z,6.17
2022-11-17T13:27:26.256Z,6.17
2022-11-17T13:30:13.345Z,5.98
2022-11-17T13:32:40.995Z,5.86
2022-11-17T13:35:22.521Z,5.86
2022-11-17T13:38:10.864Z,5.93
2022-11-17T13:40:40.141Z,5.73
2022-11-17T13:43:11.416Z,5.89
2022-11-17T13:45:38.204Z,5.77
2022-11-17T13:48:04.505Z,6.09
2022-11-17T13:50:31.280Z,6.20
2022-11-17T13:53:01.590Z,5.99
2022-11-17T13:55:28.977Z,6.10
2022-11-17T13:58:04.796Z,6.12
2022-11-17T14:00:32.937Z,5.83
2022-11-17T14:03:32.905Z,5.92
2022-11-17T14:05:59.595Z,5.73
2022-11-17T14:08:31.322Z,5.88
2022-11-17T14:11:15.641Z,5.60
2022-11-17T14:13:58.315Z,5.60
2022-11-17T14:16:31.942Z,5.62
2022-11-17T14:19:04.813Z,5.34
2022-11-17T14:21:31.874Z,5.45
2022-11-17T14:24:04.858Z,5.38
2022-11-17T14:26:32.545Z,5.36
2022-11-17T14:29:01.627Z,5.51
2022-11-17T14:31:29.921Z,5.54
2022-11-17T14:33:56.359Z,5.31
2022-11-17T14:36:23.258Z,5.38
2022-11-17T14:38:49.669Z,5.55
2022-11-17T14:41:17.889Z,5.33
2022-11-17T14:43:44.617Z,5.29
2022-11-17T14:46:19.189Z,5.45
2022-11-17T14:48:45.538Z,5.12
2022-11-17T14:51:15.950Z,5.17
2022-11-17T14:53:43.777Z,5.18
2022-11-17T14:56:11.948Z,5.14
2022-11-17T14:58:38.240Z,5.05
2022-11-17T15:01:15.366Z,4.99
2022-11-17T15:03:41.529Z,4.97
2022-11-17T15:06:12.964Z,5.24
2022-11-17T15:08:41.499Z,5.37
2022-11-17T15:11:14.052Z,5.17
2022-11-17T15:13:40.134Z,5.17
2022-11-17T15:16:06.986Z,5.15
2022-11-17T15:18:33.152Z,5.15
2022-11-17T15:21:02.250Z,5.02
2022-11-17T15:23:28.378Z,5.13
2022-11-17T15:25:54.954Z,5.33
2022-11-17T15:28:23.246Z,5.44
2022-11-17T15:30:49.984Z,5.28
2022-11-17T15:33:16.083Z,5.28
2022-11-17T15:35:42.615Z,5.15
2022-11-17T15:38:08.849Z,5.29
2022-11-17T15:40:35.341Z,5.26
2022-11-17T15:43:04.958Z,5.22
2022-11-17T15:45:32.808Z,5.05
2022-11-17T15:47:59.453Z,5.18
2022-11-17T15:50:26.822Z,5.04
2022-11-17T15:53:08.363Z,4.97
2022-11-17T15:55:35.078Z,5.12
2022-11-17T15:58:01.676Z,5.04
2022-11-17T16:00:28.299Z,5.06
2022-11-17T16:02:58.569Z,5.05
2022-11-17T16:05:25.930Z,5.10
2022-11-17T16:07:52.188Z,5.13
2022-11-17T16:10:19.025Z,5.21
2022-11-17T16:12:45.795Z,5.14
2022-11-17T16:15:12.332Z,5.02
2022-11-17T16:17:38.488Z,5.08
2022-11-17T16:20:05.588Z,5.20
2022-11-17T16:22:32.048Z,5.23
2022-11-17T16:24:58.504Z,5.14
2022-11-17T16:27:24.603Z,5.22
2022-11-17T16:29:51.479Z,5.03
2022-11-17T16:32:17.731Z,5.01
2022-11-17T16:34:48.287Z,5.16
2022-11-17T16:37:14.738Z,5.04
2022-11-17T16:39:41.221Z,4.77
2022-11-17T16:42:07.470Z,5.02
2022-11-17T16:44:34.328Z,5.00
2022-11-17T16:47:00.918Z,4.83
2022-11-17T16:49:29.364Z,4.95
2022-11-17T16:51:55.525Z,4.82
2022-11-17T16:54:22.515Z,4.92
2022-11-17T16:56:48.826Z,5.19
2022-11-17T16:59:16.985Z,4.91
2022-11-17T17:01:43.831Z,5.02
2022-11-17T17:04:11.655Z,4.97
2022-11-17T17:06:42.760Z,5.01
2022-11-17T17:09:11.287Z,5.00
2022-11-17T17:11:37.661Z,4.91
2022-11-17T17:14:07.554Z,4.90
2022-11-17T17:16:35.195Z,4.96
2022-11-17T17:19:05.720Z,5.02
2022-11-17T17:21:33.105Z,4.83
2022-11-17T17:23:59.845Z,4.91
2022-11-17T17:26:28.350Z,4.96
2022-11-17T17:28:57.008Z,4.78
2022-11-17T17:31:25.017Z,4.87
2022-11-17T17:33:54.512Z,4.87
2022-11-17T17:36:23.797Z,4.80
2022-11-17T17:38:55.811Z,4.76
2022-11-17T17:41:31.054Z,4.72
2022-11-17T17:44:02.297Z,4.62
2022-11-17T17:46:30.102Z,4.72
2022-11-17T17:48:57.261Z,4.58
2022-11-17T17:51:25.127Z,4.56
2022-11-17T17:53:53.140Z,4.81
2022-11-17T17:56:20.877Z,4.74
2022-11-17T17:58:50.175Z,4.77
2022-11-17T18:01:24.095Z,4.78
2022-11-17T18:03:53.125Z,4.81
2022-11-17T18:06:21.622Z,4.70
2022-11-17T18:08:49.673Z,4.75
2022-11-17T18:11:19.007Z,4.97
2022-11-17T18:13:48.282Z,4.77
2022-11-17T18:16:40.533Z,4.67
2022-11-17T18:19:08.315Z,4.51
2022-11-17T18:21:35.257Z,4.60
2022-11-17T18:24:02.980Z,4.53
2022-11-17T18:26:34.772Z,4.39
2022-11-17T18:29:14.566Z,4.51
2022-11-17T18:31:42.151Z,4.37
2022-11-17T18:34:20.409Z,4.50
2022-11-17T18:36:47.862Z,4.71
2022-11-17T18:39:16.024Z,4.60
2022-11-17T18:41:42.976Z,4.62
2022-11-17T18:44:18.715Z,4.62
2022-11-17T18:46:45.224Z,4.68
2022-11-17T18:49:12.059Z,4.72
2022-11-17T18:51:38.607Z,4.70
2022-11-17T18:54:05.560Z,4.61
2022-11-17T18:56:35.108Z,4.71
2022-11-17T18:59:02.121Z,4.79
2022-11-17T19:01:31.558Z,4.71
2022-11-17T19:04:00.320Z,4.63
2022-11-17T19:06:26.802Z,4.75
2022-11-17T19:08:53.886Z,4.73
2022-11-17T19:11:21.981Z,4.42
2022-11-17T19:13:49.087Z,4.31
2022-11-17T19:16:24.043Z,4.22
2022-11-17T19:18:53.468Z,4.34
2022-11-17T19:21:25.389Z,4.16
2022-11-17T19:23:58.169Z,4.14
2022-11-17T19:26:27.074Z,4.36
2022-11-17T19:28:59.911Z,4.47
2022-11-17T19:31:27.569Z,4.54
2022-11-17T19:33:55.512Z,4.37
2022-11-17T19:36:24.843Z,4.23
2022-11-17T19:38:56.103Z,3.89
2022-11-17T19:41:24.134Z,4.17
2022-11-17T19:43:56.776Z,4.24
2022-11-17T19:46:24.554Z,4.32
2022-11-17T19:48:51.290Z,4.00
2022-11-17T19:51:21.835Z,4.08
2022-11-17T19:53:51.008Z,4.05
2022-11-17T19:56:18.625Z,4.12
2022-11-17T19:58:49.111Z,4.17
2022-11-17T20:01:22.056Z,4.34
2022-11-17T20:03:49.583Z,4.39
2022-11-17T20:06:22.677Z,4.38
2022-11-17T20:08:49.647Z,4.36
2022-11-17T20:11:19.023Z,4.50
2022-11-17T20:13:45.649Z,4.49
2022-11-17T20:16:19.539Z,4.31
2022-11-17T20:18:50.280Z,4.58
2022-11-17T20:21:17.130Z,4.78
2022-11-17T20:23:44.709Z,4.78
2022-11-17T20:26:13.557Z,4.89
2022-11-17T20:28:41.662Z,4.69
2022-11-17T20:31:12.969Z,4.60
2022-11-17T20:33:41.188Z,4.71
2022-11-17T20:36:10.282Z,4.51
2022-11-17T20:38:38.239Z,4.66
2022-11-17T20:41:07.949Z,4.74
2022-11-17T20:43:35.686Z,4.56
2022-11-17T20:46:03.569Z,4.55
2022-11-17T20:48:33.362Z,4.57
2022-11-17T20:51:10.291Z,4.63
2022-11-17T20:53:37.318Z,4.33
2022-11-17T20:56:05.987Z,4.41
2022-11-17T20:58:33.684Z,4.16
2022-11-17T21:01:10.629Z,4.13
2022-11-17T21:03:37.996Z,4.14
2022-11-17T21:06:04.650Z,4.00
2022-11-17T21:08:33.843Z,4.08
2022-11-17T21:11:03.266Z,4.37
2022-11-17T21:13:32.175Z,4.33
2022-11-17T21:16:03.088Z,4.17
2022-11-17T21:18:29.953Z,3.97
2022-11-17T21:20:58.685Z,4.26
2022-11-17T21:23:26.874Z,4.31
2022-11-17T21:25:53.160Z,4.10
2022-11-17T21:28:19.629Z,4.03
2022-11-17T21:30:46.030Z,4.13
2022-11-17T21:33:12.466Z,4.25
2022-11-17T21:35:38.929Z,3.98
2022-11-17T21:38:05.354Z,4.05
2022-11-17T21:40:31.775Z,4.07
2022-11-17T21:42:58.934Z,3.92
2022-11-17T21:45:25.023Z,3.97
2022-11-17T21:47:56.500Z,3.70
2022-11-17T21:50:25.505Z,3.73
2022-11-17T21:52:53.405Z,3.84
2022-11-17T21:55:19.542Z,3.65
2022-11-17T21:57:49.688Z,3.85
2022-11-17T22:00:16.446Z,3.82
2022-11-17T22:02:42.973Z,3.70
2022-11-17T22:05:09.232Z,3.49
2022-11-17T22:07:36.122Z,3.97
2022-11-17T22:10:02.699Z,4.08
2022-11-17T22:12:30.261Z,4.21
2022-11-17T22:14:56.375Z,4.08
2022-11-17T22:17:22.820Z,3.98
2022-11-17T22:19:49.219Z,3.85
2022-11-17T22:22:15.585Z,3.69
2022-11-17T22:24:46.939Z,3.62
2022-11-17T22:27:16.037Z,3.67
2022-11-17T22:29:42.152Z,3.88
2022-11-17T22:32:09.017Z,3.85
2022-11-17T22:34:35.179Z,3.96
2022-11-17T22:37:01.819Z,3.63
2022-11-17T22:39:27.942Z,3.79
2022-11-17T22:41:54.418Z,3.78
2022-11-17T22:44:20.577Z,3.99
2022-11-17T22:46:46.956Z,4.03
2022-11-17T22:49:13.169Z,3.91
2022-11-17T22:51:58.312Z,4.06
2022-11-17T22:54:24.433Z,4.08
2022-11-17T22:56:50.896Z,4.02
2022-11-17T22:59:17.176Z,4.09
2022-11-17T23:01:43.758Z,4.00
2022-11-17T23:04:11.050Z,4.22
2022-11-17T23:06:37.417Z,4.28
2022-11-17T23:09:03.723Z,4.34
2022-11-17T23:11:37.133Z,4.43
2022-11-17T23:14:07.174Z,4.47
2022-11-17T23:16:33.642Z,4.43
2022-11-17T23:18:59.755Z,4.47
2022-11-17T23:21:26.214Z,4.21
2022-11-17T23:23:52.330Z,4.24
2022-11-17T23:26:18.900Z,4.03
2022-11-17T23:28:45.050Z,4.05
2022-11-17T23:31:14.015Z,3.63
2022-11-17T23:33:42.518Z,3.66
2022-11-17T23:36:20.115Z,3.42
2022-11-17T23:38:49.954Z,3.54
2022-11-17T23:41:18.747Z,3.68
2022-11-17T23:43:45.302Z,3.73
2022-11-17T23:46:15.298Z,4.07
2022-11-17T23:48:42.699Z,3.88
2022-11-17T23:51:12.091Z,3.84
2022-11-17T23:53:38.641Z,4.12
2022-11-17T23:56:06.092Z,4.13
2022-11-17T23:58:32.735Z,4.27
